Date,TemperatureHighF,TemperatureAvgF,TemperatureLowF,DewpointHighF,DewpointAvgF,DewpointLowF,HumidityHigh,HumidityAvg,HumidityLow,PressureMaxIn,PressureMinIn,WindSpeedMaxMPH,WindSpeedAvgMPH,GustSpeedMaxMPH,PrecipitationSumIn
2013-1-1,66.7,52.5,39.6,39.3,26.7,16.5,84,44,18,30.00,29.86,9,3,22,0.00
2013-1-2,56.3,54.7,54.0,17.5,14.7,13.1,22,20,19,29.91,29.86,9,5,21,0.00
2013-1-3,72.1,60.8,43.5,28.0,19.0,16.2,54,22,12,29.89,29.82,15,6,21,0.05
2013-1-4,77.9,68.2,39.2,40.1,23.5,16.7,74,22,12,30.02,29.93,4,2,6,0.00
2013-1-5,70.0,49.3,35.1,46.1,39.0,24.4,82,70,21,30.06,29.94,4,1,8,0.00
2013-1-6,63.1,50.4,41.0,55.4,46.1,40.7,99,86,58,29.96,29.79,7,1,17,0.01
2013-1-7,70.7,52.1,37.0,52.2,39.3,32.8,99,68,30,30.01,29.80,4,1,8,0.01
2013-1-8,82.0,56.2,41.2,54.1,43.8,31.5,98,67,21,29.94,29.86,4,1,9,0.00
2013-1-9,45.5,43.6,42.3,44.7,43.1,42.0,99,98,97,29.94,29.92,0,0,2,0.00
2013-1-10,63.9,50.1,37.4,51.6,37.1,20.2,99,67,20,29.96,29.76,8,1,13,0.00
2013-1-11,62.2,46.4,33.1,33.0,26.3,15.5,84,51,21,30.04,29.90,6,2,14,0.00
2013-1-12,66.6,46.4,34.0,33.5,27.2,18.7,73,52,16,30.00,29.92,4,2,12,0.00
2013-1-13,64.6,48.1,36.9,36.2,24.8,7.3,73,44,17,30.03,29.89,6,2,21,0.00
2013-1-14,61.3,48.5,40.1,18.2,10.7,5.1,24,21,18,30.19,29.99,10,5,29,0.00
2013-1-15,70.2,50.2,32.9,42.2,25.0,5.8,89,44,14,30.28,30.17,7,1,14,0.00
2013-1-16,45.7,43.5,40.3,31.7,29.8,28.5,69,58,52,30.19,30.17,1,0,4,0.00
2013-1-17,79.5,70.1,64.0,24.0,19.1,16.2,17,14,12,30.01,29.88,14,6,23,0.04
2013-1-18,81.1,71.1,59.9,24.1,20.1,16.3,19,15,11,29.99,29.88,9,5,22,0.00
2013-1-19,80.4,66.9,60.6,24.1,18.9,16.3,19,16,12,30.02,29.93,8,5,19,0.00
2013-1-20,83.5,69.0,52.2,30.9,21.2,14.6,28,17,11,29.97,29.84,9,3,21,0.00
2013-1-21,86.0,70.4,55.8,31.5,21.3,16.5,22,16,11,29.93,29.82,8,4,21,0.00
2013-1-22,83.8,63.9,53.8,40.6,24.7,14.9,52,24,12,29.92,29.83,6,2,11,0.00
2013-1-23,83.7,63.5,55.0,52.2,35.1,19.8,90,38,18,29.94,29.83,5,1,14,0.05
2013-1-24,65.3,58.6,53.1,60.4,56.7,51.6,99,94,78,30.01,29.91,6,2,17,0.71
2013-1-25,64.8,61.0,58.5,60.0,56.5,50.8,99,86,61,29.96,29.81,6,2,16,0.17
2013-1-26,75.4,58.7,54.7,64.9,56.4,53.0,99,93,63,29.83,29.72,5,2,8,0.14
2013-1-27,70.0,56.4,41.9,58.3,47.5,31.1,97,75,31,29.88,29.75,6,2,16,0.00
2013-1-28,65.7,50.6,37.2,40.7,35.9,30.1,92,61,29,30.03,29.87,6,2,14,0.00
2013-1-29,63.9,50.7,39.2,46.0,38.4,33.6,88,65,37,30.06,29.98,4,1,9,0.00
2013-2-1,82.8,64.1,50.2,54.4,50.1,43.3,99,65,25,30.01,29.94,9,1,12,0.00
2013-2-2,77.2,61.7,50.5,57.2,51.0,44.2,99,70,31,30.02,29.95,5,1,8,0.00
2013-2-3,78.3,61.0,47.7,55.5,51.6,46.5,99,75,37,29.98,29.85,5,1,8,0.00
2013-2-4,70.9,56.4,43.3,56.7,50.6,42.8,99,83,55,29.93,29.82,4,1,8,0.00
2013-2-5,59.7,54.8,45.7,54.9,52.6,44.9,99,92,80,29.93,29.83,4,1,10,0.00
2013-2-6,70.7,55.9,45.0,56.9,50.4,44.2,99,84,47,29.95,29.83,5,1,11,0.00
2013-2-7,66.9,52.7,41.2,53.4,47.6,40.9,99,84,55,29.98,29.81,5,1,11,0.01
2013-2-8,59.9,49.5,41.2,47.1,42.2,38.5,95,77,54,29.81,29.70,7,2,17,0.00
2013-2-9,65.8,50.3,35.1,42.8,37.1,32.0,99,68,31,29.88,29.77,4,2,13,0.00
2013-2-10,64.6,49.6,40.5,46.6,42.7,39.2,99,79,47,29.93,29.85,4,2,9,0.00
2013-2-11,71.1,52.2,37.6,44.7,36.8,17.4,99,66,13,30.07,29.90,8,2,16,0.00
2013-2-12,68.2,52.5,38.3,40.8,34.4,23.6,87,55,21,30.18,30.07,4,2,6,0.00
2013-2-13,68.4,52.3,36.3,51.5,41.4,32.9,97,70,32,30.10,29.98,5,1,9,0.00
2013-2-14,76.3,52.5,40.1,54.7,45.1,37.3,98,79,38,30.03,29.90,7,1,10,0.00
2013-2-15,86.4,67.6,44.8,40.4,29.0,18.7,75,29,11,30.03,29.94,8,3,26,0.00
2013-2-16,86.4,66.3,47.5,41.8,27.3,20.1,62,26,11,29.99,29.81,6,2,11,0.00
2013-2-17,70.9,55.6,40.3,55.2,43.8,30.8,99,68,28,29.86,29.76,5,1,13,0.00
2013-2-18,68.4,56.8,46.2,52.6,49.8,45.4,99,80,51,29.93,29.81,5,2,11,0.00
2013-2-19,62.6,54.1,49.1,51.3,48.1,42.6,99,82,52,29.85,29.65,6,2,17,0.00
2013-2-20,60.3,48.0,42.1,48.0,32.9,25.3,74,57,32,30.09,29.92,4,1,8,0.09
2013-2-21,68.2,52.3,38.8,46.2,37.2,31.3,77,58,33,30.09,30.01,6,2,13,0.00
2013-2-22,48.0,46.9,46.0,44.0,43.0,40.9,92,86,80,30.22,30.19,2,1,5,0.00
2013-2-23,69.1,59.6,38.3,54.2,45.3,35.4,92,61,44,30.20,29.94,5,2,13,0.00
2013-2-24,55.6,46.6,43.9,36.4,34.1,32.5,69,62,44,30.24,30.18,2,1,6,0.00
2013-2-25,72.0,54.9,38.5,33.2,24.6,16.8,71,37,14,30.26,29.63,5,2,13,0.00
2013-2-26,55.8,51.2,46.6,46.5,41.4,27.1,85,71,33,29.84,29.77,2,1,2,0.00
2013-2-27,84.0,63.7,49.8,31.4,21.9,15.0,46,22,11,30.01,29.84,10,3,14,0.00
2013-2-28,85.3,59.4,44.1,49.7,34.5,18.9,67,45,11,30.03,29.96,5,1,12,0.00
2013-3-1,91.4,67.9,47.3,40.3,31.6,19.9,62,31,11,30.03,29.88,7,2,21,0.00
2013-3-2,84.4,62.3,51.8,42.3,33.5,29.6,55,36,16,29.93,29.88,3,1,8,0.00
2013-3-3,72.1,59.8,50.5,56.7,53.6,49.7,99,82,45,29.75,29.70,6,2,13,0.00
2013-3-4,70.0,56.6,45.5,56.0,51.0,44.5,99,84,55,29.82,29.73,6,2,12,0.00
2013-3-5,72.7,55.1,46.0,55.3,51.2,45.1,99,87,52,29.85,29.75,5,2,14,0.00
2013-3-6,64.6,54.4,46.2,53.0,49.8,45.2,99,86,55,29.87,29.73,4,1,8,0.00
2013-3-7,66.0,56.0,49.1,57.0,50.1,44.2,99,83,48,29.74,29.55,4,1,13,0.33
2013-3-8,66.4,54.4,44.8,54.9,47.6,43.6,99,80,51,29.74,29.51,6,2,14,0.37
2013-3-9,70.3,55.7,41.0,52.4,46.8,40.7,99,76,41,29.93,29.75,6,2,14,0.00
2013-3-10,80.6,59.7,41.7,49.5,41.9,24.1,94,60,14,29.99,29.89,6,2,13,0.00
2013-3-11,76.8,58.4,40.8,50.2,44.2,36.7,99,66,30,29.90,29.77,5,1,13,0.00
2013-3-12,78.4,59.7,43.5,57.9,48.6,41.7,99,71,36,29.81,29.74,4,1,10,0.00
2013-3-13,78.8,60.4,43.9,57.9,51.4,43.2,99,77,41,29.83,29.75,4,1,9,0.00
2013-3-14,52.2,50.9,50.5,51.4,50.7,50.3,99,99,98,29.80,29.79,1,0,4,0.00
2013-3-15,71.1,60.6,51.4,62.3,55.5,51.2,99,85,65,29.76,29.70,6,2,11,0.00
2013-3-16,69.6,57.7,49.8,57.1,53.7,49.6,99,87,63,29.71,29.60,4,2,8,0.00
2013-3-17,71.8,55.5,46.2,58.4,51.8,45.2,99,89,58,29.74,29.65,4,1,10,0.00
2013-3-18,68.5,54.7,45.3,55.9,50.9,44.5,99,88,61,29.81,29.70,4,1,11,0.00
2013-3-19,71.4,58.7,46.9,58.2,53.6,46.7,99,85,57,29.84,29.75,5,2,13,0.00
2013-3-20,73.8,60.0,51.6,59.5,54.2,50.4,99,83,54,29.82,29.67,4,1,13,0.00
2013-3-21,74.8,60.3,47.5,58.1,53.3,47.2,99,80,52,29.68,26.60,6,2,11,0.00
2013-3-22,75.4,60.2,44.1,54.6,48.5,38.9,99,70,34,29.62,29.51,5,2,11,0.00
2013-3-23,73.4,57.7,41.0,57.0,46.4,31.1,99,70,23,29.73,29.62,5,2,12,0.00
2013-3-24,76.3,59.7,43.3,57.0,50.1,42.6,99,75,36,29.75,29.61,6,1,13,0.00
2013-3-25,75.6,58.7,44.1,59.7,51.6,41.6,99,79,50,29.69,29.61,5,1,11,0.00
2013-3-26,71.1,58.8,48.0,60.2,53.3,47.8,99,84,59,29.69,29.63,5,2,15,0.00
2013-3-27,71.6,59.7,47.7,56.6,53.1,47.4,99,81,53,29.77,29.65,6,2,14,0.00
2013-3-28,72.9,58.8,51.3,58.6,54.4,51.0,99,87,58,29.81,29.74,6,2,14,0.00
2013-3-29,73.4,59.3,48.2,59.6,55.1,47.9,99,87,58,29.84,29.76,5,2,12,0.00
2013-3-30,73.0,60.7,55.0,59.3,56.0,54.2,99,86,57,29.86,29.77,6,2,14,0.00
2013-3-31,71.2,60.8,54.7,64.4,57.4,53.9,99,89,63,29.84,29.77,5,2,14,0.05
2013-4-1,69.6,57.3,40.5,57.6,54.4,21.3,99,91,46,30.01,29.88,8,2,13,0.00
2013-4-2,73.0,57.0,48.0,58.2,53.1,47.8,99,89,53,29.91,29.81,6,1,11,0.00
2013-4-3,78.1,61.9,50.2,59.5,56.0,49.9,99,83,48,29.89,29.81,6,2,14,0.00
2013-4-4,59.0,56.8,56.1,57.0,56.2,55.6,99,98,93,29.93,29.85,3,1,7,0.00
2013-4-5,67.8,58.0,54.0,57.4,55.2,53.1,97,91,68,29.97,29.91,3,1,8,0.00
2013-4-6,75.2,61.9,49.6,59.9,55.2,49.4,99,81,55,30.02,29.87,6,2,13,0.00
2013-4-7,78.6,62.9,49.6,60.6,54.8,49.4,99,78,44,29.90,29.70,4,2,11,0.00
2013-4-8,72.9,61.0,50.0,55.4,43.5,26.7,99,60,20,29.77,29.58,12,4,28,0.01
2013-4-9,73.8,52.2,43.5,48.4,43.5,32.7,92,76,25,29.88,29.77,2,0,5,0.00
2013-4-10,87.6,72.4,46.0,56.5,40.2,24.2,88,41,13,29.96,29.83,6,2,14,0.01
2013-4-11,54.1,51.7,50.0,51.0,49.7,46.3,96,93,88,29.84,29.81,1,0,2,0.00
2013-4-12,72.5,59.8,51.3,57.7,54.3,51.0,99,84,57,29.74,29.66,8,2,13,0.00
2013-4-13,62.2,57.4,53.6,57.8,55.3,52.8,99,93,82,29.78,29.70,4,1,8,0.00
2013-4-14,65.7,60.5,54.9,58.7,54.8,53.2,99,82,68,29.75,29.68,5,2,11,0.01
2013-4-15,57.4,56.4,55.2,55.3,54.3,53.2,97,93,86,29.73,29.70,3,1,4,0.00
2013-4-16,69.3,57.3,43.9,52.0,45.7,39.1,99,69,36,29.88,29.73,5,2,10,0.00
2013-4-17,74.7,61.4,42.6,48.8,39.8,19.9,99,53,14,29.99,29.88,6,2,11,0.00
2013-4-18,84.9,65.9,50.9,43.6,28.2,16.3,68,29,11,30.07,29.99,9,4,28,0.00
2013-4-19,86.0,66.6,47.1,55.2,41.5,28.7,92,47,14,30.03,29.83,5,2,12,0.00
2013-4-20,86.4,66.5,48.6,57.9,50.9,43.9,98,62,27,29.86,29.74,6,2,13,0.00
2013-4-21,81.3,65.0,50.0,60.2,55.2,47.8,99,75,36,29.86,29.78,6,2,12,0.00
2013-4-22,73.2,63.0,57.6,59.0,57.0,55.7,96,82,59,29.86,29.75,5,2,14,0.00
2013-4-23,73.9,63.4,56.5,57.1,55.3,53.6,99,77,55,29.83,29.74,5,2,12,0.00
2013-4-24,63.1,58.7,56.5,58.8,56.9,55.7,99,94,83,29.82,29.76,4,1,9,0.00
2013-4-25,75.0,61.3,52.5,58.3,53.0,49.3,98,77,42,29.99,29.82,5,1,10,0.00
2013-4-26,76.5,63.4,50.7,57.5,53.6,48.5,99,74,45,30.01,29.96,5,2,13,0.00
2013-4-27,77.2,63.4,49.6,61.6,55.5,49.4,99,78,50,30.00,29.85,5,2,14,0.00
2013-4-28,75.2,62.3,54.3,61.5,57.5,53.5,99,86,59,29.87,29.72,5,2,11,0.00
2013-4-29,73.0,62.1,54.9,61.4,57.9,54.0,99,87,64,29.77,29.65,5,2,12,0.00
2013-4-30,72.9,62.7,57.9,59.6,58.0,56.8,99,86,59,29.75,29.68,8,2,13,0.00
2013-5-1,77.7,67.1,55.8,61.4,57.9,55.5,99,74,48,29.95,29.75,5,2,12,0.00
2013-5-2,97.0,71.4,50.0,57.2,45.4,20.9,99,55,11,29.98,29.87,13,4,30,0.04
2013-5-3,99.1,73.9,51.1,57.2,45.4,28.8,89,44,11,29.89,29.61,5,1,13,0.00
2013-5-4,79.5,65.4,52.0,61.3,56.4,46.0,96,75,46,29.70,29.58,8,2,18,0.00
2013-5-5,69.6,62.5,58.6,57.6,55.0,52.0,91,77,56,29.78,29.68,4,2,14,0.00
2013-5-6,74.7,63.7,57.0,62.4,56.9,50.4,99,81,48,34.77,29.73,5,2,13,0.11
2013-5-7,76.3,66.2,57.9,59.3,55.9,47.5,98,72,37,29.89,29.84,6,2,17,0.00
2013-5-9,60.1,59.2,57.9,57.9,57.6,57.1,97,94,92,29.94,29.93,2,0,2,0.00
2013-5-10,80.4,69.5,54.3,62.1,59.6,53.5,99,72,50,29.96,29.86,5,2,13,0.00
2013-5-11,81.9,67.5,57.0,65.7,61.1,56.8,99,82,54,29.93,29.86,5,2,13,0.00
2013-5-12,88.5,72.2,55.4,66.5,61.3,54.4,99,73,42,29.91,29.77,6,1,14,0.00
2013-5-13,86.4,71.0,57.4,66.0,61.0,57.0,99,74,45,29.83,29.76,4,2,11,0.00
2013-5-14,75.0,63.8,54.9,61.7,57.1,54.0,99,81,57,29.86,29.77,6,2,13,0.00
2013-5-15,75.2,63.5,51.4,61.1,56.2,51.2,99,79,56,29.91,29.80,6,2,13,0.00
2013-5-16,56.8,55.2,53.8,56.2,54.6,1.0,99,98,97,29.83,29.81,1,0,3,0.00
2013-5-17,74.7,62.1,54.0,59.4,55.2,52.8,99,79,57,29.85,29.77,6,2,14,0.00
2013-5-18,77.4,61.0,0.0,59.0,54.9,51.0,99,71,43,29.90,29.82,5,1,13,0.00
2013-5-19,81.0,66.2,51.8,60.8,56.6,51.3,98,74,45,29.85,29.71,6,2,14,0.00
2013-5-20,81.9,69.1,53.8,63.2,58.3,53.0,99,71,44,29.81,29.72,5,2,12,0.00
2013-5-21,79.0,68.2,56.1,65.4,60.3,54.9,99,77,60,29.80,29.68,5,2,13,0.00
2013-5-22,76.1,65.2,55.2,61.0,55.4,51.2,95,73,46,29.71,29.63,6,2,14,0.00
2013-5-23,75.0,63.6,52.5,57.9,53.1,48.1,94,71,43,29.80,29.68,6,2,17,0.00
2013-5-24,74.8,62.6,49.1,59.0,53.0,48.8,99,73,47,29.84,29.76,5,2,15,0.00
2013-5-25,74.5,63.4,49.6,59.7,54.5,48.8,99,75,51,29.88,29.82,7,2,16,0.00
2013-5-26,75.6,64.5,50.5,59.7,56.0,50.0,99,76,54,29.90,29.84,7,2,14,0.00
2013-5-27,77.4,66.0,52.7,61.2,57.2,52.2,99,76,50,29.86,29.70,5,2,12,0.00
2013-5-28,81.9,68.7,54.9,62.2,58.7,54.0,99,73,44,29.74,29.59,5,2,13,0.00
2013-5-29,83.8,68.9,55.9,63.1,58.3,55.6,99,72,42,29.67,29.56,4,2,12,0.00
2013-5-30,80.4,68.1,53.6,64.1,58.6,52.8,99,74,53,29.70,29.62,5,2,12,0.00
2013-5-31,69.1,63.2,60.1,61.4,60.4,57.8,96,91,74,30.17,29.92,3,1,6,0.00
2013-6-1,81.9,69.0,58.8,65.4,62.1,58.6,99,81,53,29.95,29.83,5,2,10,0.00
2013-6-2,75.7,65.5,60.6,65.9,62.2,60.2,99,90,70,29.92,29.86,4,2,11,0.00
2013-6-3,78.4,68.4,60.6,63.4,61.4,59.7,99,80,57,29.99,29.89,6,2,13,0.00
2013-6-4,76.6,66.9,57.7,63.0,60.2,56.0,98,80,59,30.07,29.98,5,2,13,0.00
2013-6-5,75.6,63.5,53.2,61.6,57.8,52.7,99,83,59,30.11,30.03,5,2,12,0.00
2013-6-6,75.9,64.3,55.0,62.5,59.1,54.2,99,85,61,30.05,29.98,5,2,11,0.00
2013-6-7,76.8,65.6,60.3,63.1,60.6,58.8,97,85,62,30.01,29.88,4,2,12,0.00
2013-6-8,72.7,65.1,61.3,63.3,61.1,60.1,96,87,70,30.00,29.88,5,2,11,0.00
2013-6-9,75.7,65.5,60.6,64.8,61.0,58.5,99,86,66,30.01,29.97,6,2,12,0.00
2013-6-10,79.0,69.0,60.8,61.6,59.0,55.3,94,72,48,30.06,29.99,6,2,14,0.00
2013-6-11,82.4,69.5,57.2,63.8,61.2,56.9,99,77,50,30.04,29.98,6,2,11,0.00
2013-6-12,75.6,65.4,61.0,63.4,61.4,59.9,98,88,64,30.13,30.03,5,2,13,0.00
2013-6-13,77.4,70.6,62.6,63.8,61.9,58.6,95,75,62,30.11,29.99,5,2,12,0.00
2013-6-14,78.1,66.8,53.8,63.7,60.9,52.9,99,83,59,30.01,29.93,6,2,11,0.00
2013-6-15,77.7,67.2,60.4,63.0,60.6,59.0,99,81,55,30.08,29.98,7,2,15,0.00
2013-6-16,77.9,68.0,61.2,62.5,60.4,59.0,94,78,58,30.14,30.05,5,2,12,0.00
2013-6-17,79.3,65.5,55.4,63.5,59.9,55.1,99,84,53,30.09,29.97,6,1,9,0.00
2013-6-18,79.0,67.9,55.8,63.5,59.1,55.5,99,76,53,30.02,29.92,6,2,13,0.00
2013-6-19,87.1,70.8,55.0,62.0,56.7,47.2,99,66,26,29.97,29.87,6,2,13,0.00
2013-6-20,81.1,69.3,54.1,63.2,57.1,52.7,97,68,43,29.95,29.90,6,2,11,0.00
2013-6-21,80.6,70.8,54.5,63.4,58.8,53.7,97,68,48,29.99,29.93,5,2,12,0.00
2013-6-22,81.3,68.7,55.8,64.0,60.0,54.9,99,76,50,30.00,29.91,6,2,14,0.00
2013-6-23,75.6,66.9,55.8,63.0,60.6,55.5,99,81,62,29.99,29.89,4,2,11,0.00
2013-6-24,78.1,66.4,55.9,64.9,61.3,55.7,99,85,60,30.04,29.91,5,2,12,0.00
2013-6-25,78.1,69.8,61.2,65.8,62.8,7.5,98,80,11,30.09,30.00,6,2,14,0.00
2013-6-26,84.4,73.0,60.3,67.5,63.9,60.0,99,75,50,30.07,30.00,4,2,14,0.00
2013-6-27,87.3,74.7,63.3,69.7,65.8,62.5,99,76,52,30.11,30.05,5,2,12,0.00
2013-6-28,89.2,74.6,62.1,69.0,65.0,61.5,99,75,46,30.08,29.96,5,2,11,0.00
2013-6-29,90.3,76.7,61.2,69.0,65.1,60.6,99,71,44,29.98,29.82,4,1,11,0.00
2013-6-30,91.6,76.1,63.3,69.9,66.4,62.5,99,75,43,29.91,29.80,6,2,14,0.00
2013-7-1,86.7,75.6,66.0,70.6,68.4,60.7,99,79,56,29.98,29.92,5,2,12,0.00
2013-7-2,84.9,70.9,63.5,70.0,66.3,62.7,99,87,57,30.10,29.96,5,2,15,0.00
2013-7-3,81.1,69.7,64.8,68.6,65.7,63.9,99,88,63,30.03,29.90,5,2,11,0.00
2013-7-4,81.0,70.3,64.2,68.3,65.2,63.4,99,85,58,29.94,29.84,5,2,11,0.00
2013-7-5,82.4,70.6,65.3,67.4,65.4,64.2,97,85,58,29.95,29.86,5,2,11,0.00
2013-7-6,80.4,70.4,64.6,68.3,65.5,63.4,97,85,65,29.93,29.85,5,2,14,0.00
2013-7-7,81.0,69.4,61.2,67.6,63.7,60.6,99,84,58,29.96,29.88,5,2,11,0.00
2013-7-8,82.8,70.6,59.9,66.4,62.9,59.6,99,79,52,30.03,29.95,5,2,11,0.00
2013-7-9,87.4,73.4,59.2,67.2,62.7,58.9,99,73,44,30.08,30.01,5,2,13,0.00
2013-7-10,87.3,70.7,60.6,67.8,64.3,60.2,99,82,49,30.08,29.99,4,1,11,0.00
2013-7-11,81.1,70.0,65.8,69.6,66.2,64.4,96,89,66,30.06,29.98,3,1,6,0.00
2013-7-12,80.8,71.5,60.6,69.5,64.9,60.3,99,81,61,30.03,29.97,5,2,12,0.00
2013-7-13,81.0,69.4,61.5,66.2,63.0,60.3,98,82,56,30.06,29.96,5,2,13,0.00
2013-7-14,83.7,70.6,57.4,66.7,61.8,57.1,99,76,46,30.04,29.90,5,2,11,0.00
2013-7-15,82.4,69.4,57.6,63.7,60.0,57.3,99,75,48,29.98,29.91,5,2,13,0.00
2013-7-16,83.3,67.8,55.2,65.1,58.7,54.4,99,77,43,30.08,29.97,4,2,12,0.00
2013-7-17,60.8,60.8,60.8,60.0,60.0,59.7,97,97,97,30.07,30.07,0,0,3,0.00
2013-7-18,81.5,69.1,57.0,63.4,60.6,56.7,99,76,51,29.91,29.79,5,1,8,0.00
2013-7-19,81.5,70.0,59.5,63.4,60.1,57.8,99,73,47,29.91,29.74,5,2,10,0.00
2013-7-20,80.2,68.0,56.8,66.8,62.5,56.6,99,84,62,29.81,29.69,5,2,12,0.00
2013-7-21,79.5,67.7,64.0,67.6,65.0,62.6,99,92,63,29.85,29.72,4,1,11,0.00
2013-7-22,80.6,70.0,63.3,69.0,64.7,62.5,99,85,62,29.91,29.83,5,2,11,0.01
2013-7-23,81.1,69.9,63.1,66.7,63.6,61.4,99,83,52,29.96,29.87,5,2,14,0.00
2013-7-24,77.4,67.2,61.7,64.8,62.4,61.0,98,86,63,29.91,29.82,14,2,115,0.00
2013-7-25,77.9,67.4,61.5,65.3,62.2,60.2,98,85,63,29.94,29.85,5,2,11,0.00
2013-7-26,80.6,67.8,61.0,65.7,62.2,60.3,98,84,55,30.09,29.92,4,2,11,0.00
2013-7-27,79.2,67.7,60.4,65.0,61.6,8.2,99,83,58,30.08,29.94,6,2,12,0.00
2013-7-28,76.1,65.5,59.9,64.8,61.6,59.6,99,88,67,29.99,29.93,4,2,11,0.00
2013-7-29,78.1,67.6,59.9,64.6,61.1,58.5,99,82,57,30.10,29.98,4,2,14,0.00
2013-7-30,78.1,66.3,57.9,64.0,60.3,57.5,99,83,56,30.19,30.09,4,2,12,0.00
2013-7-31,76.5,65.0,56.8,62.5,59.9,56.4,99,85,59,30.18,30.06,5,2,13,0.00
2013-8-1,77.4,66.3,59.2,63.0,60.2,58.3,97,82,56,30.10,29.96,4,1,12,0.00
2013-8-2,79.7,67.0,54.1,64.6,60.3,53.3,99,81,57,30.03,29.97,5,1,13,0.00
2013-8-3,79.3,66.3,57.6,64.6,61.0,57.3,99,85,57,30.06,30.00,4,2,13,0.00
2013-8-4,78.3,66.0,57.6,63.8,60.8,57.3,99,85,57,30.09,30.00,4,2,11,0.00
2013-8-5,79.3,66.1,58.1,63.0,59.8,8.3,99,83,13,30.08,29.98,4,1,12,0.00
2013-8-6,79.0,66.2,57.7,62.9,60.4,57.5,99,84,49,30.11,29.79,6,2,14,0.01
2013-8-7,77.7,66.4,58.5,63.5,60.4,58.2,99,83,54,30.02,29.91,5,2,12,0.00
2013-8-8,79.5,67.7,58.8,64.4,60.9,58.6,99,81,53,29.93,29.84,5,2,12,0.00
2013-8-9,77.9,66.5,57.9,63.9,60.4,8.5,99,83,13,29.90,29.84,7,2,14,0.00
2013-8-10,77.9,66.7,56.7,67.4,60.8,56.4,99,83,58,29.96,29.89,6,2,14,0.00
2013-8-11,79.3,67.0,58.5,64.3,61.5,58.2,99,84,57,29.93,29.84,5,1,14,0.00
2013-8-12,80.1,68.1,61.0,65.1,62.2,60.3,98,83,58,29.91,29.84,5,2,11,0.00
2013-8-13,81.7,67.8,60.4,66.1,62.4,60.2,99,85,55,29.92,29.81,4,2,11,0.00
2013-8-14,81.9,65.1,60.8,67.1,61.9,60.2,98,91,58,29.87,29.77,4,1,8,0.00
2013-8-15,82.8,69.0,61.0,68.1,64.0,60.2,99,86,57,29.88,29.82,6,2,11,0.00
2013-8-16,83.5,70.2,62.2,67.7,63.7,61.3,99,82,55,29.90,29.84,6,2,11,0.00
2013-8-17,80.1,65.3,61.5,66.1,62.0,61.0,98,91,58,29.89,29.75,6,1,8,0.00
2013-8-18,82.0,69.6,59.4,66.2,62.6,59.1,99,81,53,29.82,29.75,5,2,11,0.00
2013-8-19,79.7,67.6,60.6,67.3,63.2,60.2,99,87,60,29.89,29.80,4,2,7,0.00
2013-8-20,81.3,68.2,61.7,65.6,62.2,60.1,98,83,57,29.89,29.80,7,2,8,0.00
2013-8-21,81.5,68.7,56.5,64.9,60.9,56.2,99,79,51,29.87,29.78,5,1,10,0.00
2013-8-22,87.1,71.3,56.3,66.9,60.8,56.0,99,74,42,29.85,29.76,6,1,11,0.00
2013-8-23,85.1,70.3,54.3,62.9,60.0,53.5,99,74,45,29.80,29.67,5,1,8,0.00
2013-8-24,82.6,66.0,54.3,65.4,60.8,53.5,99,85,49,29.81,29.70,6,1,9,0.01
2013-8-25,85.5,69.2,56.1,65.8,61.0,55.9,99,79,45,29.85,29.77,4,1,11,0.00
2013-8-26,89.6,71.9,52.3,64.3,60.0,51.8,99,71,34,29.86,29.75,6,1,10,0.00
2013-8-27,76.1,66.8,64.4,68.1,64.4,63.1,97,92,72,29.78,29.72,2,0,6,0.00
2013-8-30,76.6,75.4,74.3,65.9,63.8,62.6,75,68,62,29.93,29.93,2,0,3,0.00
2013-8-31,93.0,83.5,70.3,71.5,68.2,64.5,92,62,45,29.94,29.85,5,2,13,0.00
2013-9-1,90.1,77.4,68.5,72.1,68.6,64.6,98,76,54,29.92,29.83,4,1,49,0.00
2013-9-2,89.4,75.3,64.6,72.3,68.7,64.3,99,82,54,29.91,29.78,5,1,10,0.00
2013-9-3,91.9,78.1,65.1,72.2,67.6,64.8,99,73,47,29.88,29.80,4,1,10,0.00
2013-9-4,89.6,75.9,63.7,71.6,65.4,62.8,99,73,45,29.91,29.82,4,1,11,0.00
2013-9-5,92.7,75.7,61.7,69.4,64.7,61.1,99,73,42,29.88,29.81,4,1,11,0.00
2013-9-6,93.6,75.6,60.6,70.4,64.0,60.2,99,72,40,29.87,29.77,4,1,11,0.00
2013-9-7,87.6,72.3,60.3,69.7,63.2,60.0,99,77,44,29.86,29.79,5,1,12,0.00
2013-9-8,82.2,69.6,60.8,67.4,62.5,60.0,99,81,51,29.85,29.75,5,1,11,0.00
2013-9-9,77.4,66.0,60.1,65.4,61.8,59.8,99,88,63,29.82,29.75,4,1,11,0.00
2013-9-10,79.0,68.3,60.3,64.7,62.4,60.0,99,83,57,29.93,29.80,5,1,11,0.00
2013-9-11,80.1,68.3,59.2,65.5,62.1,58.9,99,83,57,30.00,29.92,6,1,12,0.00
2013-9-12,86.2,73.0,55.8,68.1,61.8,55.5,99,72,46,29.93,29.82,4,2,10,0.00
2013-9-13,86.0,75.8,57.2,66.1,62.8,56.9,99,67,45,29.93,29.79,7,2,8,0.00
2013-9-14,86.5,75.8,57.9,65.6,62.3,57.6,99,66,44,29.84,29.76,5,2,10,0.00
2013-9-15,84.9,71.4,58.5,67.2,62.5,58.2,99,76,49,29.89,29.80,20,1,20,11.61
2013-9-16,85.6,69.6,0.0,67.6,62.2,57.8,99,78,48,29.95,29.86,5,1,10,0.00
2013-9-17,80.2,66.5,55.9,66.1,60.5,55.7,99,84,52,29.95,29.85,8,1,30,0.00
2013-9-18,79.9,67.8,55.6,67.4,61.4,55.3,99,82,56,29.94,29.86,4,1,12,0.00
2013-9-19,80.1,68.2,56.3,66.6,63.0,56.0,99,85,61,29.95,29.86,5,1,11,0.00
2013-9-20,73.4,65.7,64.9,65.0,63.6,62.9,96,93,75,30.01,29.93,4,1,6,0.00
2013-9-21,79.7,67.3,58.8,66.0,62.4,58.4,99,86,53,30.04,29.91,8,2,15,0.00
2013-9-22,84.4,68.1,55.2,66.3,57.6,45.8,99,74,28,29.97,29.88,6,1,11,0.00
2013-9-23,92.7,72.8,51.6,59.4,52.7,45.7,99,57,22,29.99,29.93,4,1,13,0.00
2013-9-24,88.5,75.0,54.3,62.7,56.1,47.8,99,58,27,30.05,29.94,4,2,12,0.00
2013-9-25,79.3,67.5,53.2,63.4,57.8,52.7,99,74,45,29.96,29.80,6,2,17,0.00
2013-9-26,79.0,65.7,55.6,59.7,54.3,42.1,97,71,27,30.01,29.83,7,2,13,0.00
2013-9-27,90.1,66.3,50.2,52.5,37.1,25.5,93,40,13,30.11,30.00,7,1,12,0.00
2013-9-28,88.5,69.6,50.5,49.9,41.4,30.9,73,41,13,30.15,30.08,6,2,11,0.00
2013-9-29,86.0,67.8,50.5,57.7,48.6,34.1,94,55,18,30.18,30.08,4,1,11,0.00
2013-9-30,85.5,66.0,50.5,61.7,52.9,43.9,99,69,27,30.10,29.92,15,1,15,0.00
2013-10-1,81.7,66.7,52.3,65.6,58.9,51.8,99,79,50,30.01,29.94,4,1,12,0.00
2013-10-2,80.6,65.6,54.7,65.2,59.8,53.9,99,84,51,30.05,29.96,5,1,12,0.00
2013-10-3,79.0,65.7,56.7,65.6,60.3,56.2,99,85,57,30.01,29.89,4,1,13,0.00
2013-10-4,89.4,72.4,51.4,56.4,34.3,16.3,99,39,11,30.12,29.95,12,5,30,0.00
2013-10-5,93.9,79.4,65.5,38.6,26.8,17.2,23,15,11,30.20,30.10,11,5,32,0.00
2013-10-6,100.0,77.7,60.3,53.9,33.1,16.3,67,25,11,30.16,30.04,5,2,15,0.00
2013-10-7,84.2,65.8,52.0,60.5,51.0,34.4,99,63,25,30.06,29.98,4,1,11,0.00
2013-10-8,76.5,63.0,49.5,61.6,56.4,13.1,99,81,57,30.01,29.90,6,2,14,0.01
2013-10-9,69.3,60.3,51.1,58.0,53.6,47.7,96,80,49,29.90,29.77,7,2,18,0.00
2013-10-10,74.5,59.8,47.1,56.0,51.9,46.9,99,78,45,30.11,29.88,5,2,12,0.00
2013-10-11,76.5,61.8,48.0,59.7,53.1,47.8,99,77,47,30.13,30.05,4,1,11,0.00
2013-10-12,77.0,60.6,49.3,61.7,55.8,49.0,99,87,47,29.95,29.87,6,1,10,0.01
2013-10-13,76.5,61.5,50.9,59.5,55.6,50.6,99,83,53,29.99,29.91,4,1,10,0.00
2013-10-14,89.2,65.6,48.4,62.7,53.9,32.7,99,73,15,30.00,29.89,5,1,12,0.00
2013-10-15,92.8,72.9,54.7,56.8,40.5,28.2,91,37,11,29.93,29.85,6,2,17,0.00
2013-10-16,94.1,74.3,55.6,46.4,33.2,19.9,69,26,11,30.04,29.93,6,2,20,0.00
2013-10-17,84.9,65.8,48.4,60.5,46.1,31.5,99,56,16,30.01,29.89,4,1,11,0.00
2013-10-18,81.9,64.7,49.8,64.1,52.6,40.6,98,69,30,29.98,29.91,4,1,11,0.00
2013-10-19,83.5,64.6,47.7,62.7,52.3,38.6,99,70,27,30.00,29.92,4,1,13,0.00
2013-10-20,54.1,49.8,47.1,53.1,49.3,46.1,99,98,95,29.95,29.90,2,0,4,0.00
2013-12-30,79.3,61.3,44.6,43.2,35.9,22.0,74,46,12,30.20,30.13,97,2,97,0.00
2013-12-31,72.9,50.8,0.0,53.4,39.7,21.8,98,68,15,30.16,29.68,5,1,9,0.00
2014-1-1,76.8,55.0,40.5,54.2,46.7,38.9,99,77,42,29.96,29.85,6,1,21,0.00
2014-1-2,85.5,62.9,45.3,50.3,38.9,26.7,99,47,16,29.91,29.81,5,1,8,0.00